Anangel Destiny — SXON — position and weather

sailwx.info

Track history (hours):
 
Tides and Currents Weather Stations Pressure Air Temp Water Temp Dewpoint Dewpoint Depression Visibility Wind Speed Wind Dir Waves Ship Positions

Anangel Destiny

Last reported at 2017-Sep-21 21:10 UTC. Time now 2017-Sep-25 19:06 UTC.
Position N 23°47' E 120°11'.

Length 289 m; draft 15.1 m.

Type: Cargo ship. MMSI: 239612000.

Date/timePositionNaut miles runAvg speedWind from/ knotsBaromVisibWave heightAir tempDewpointWater temp
2017-Sep-21 21:10N 23°47' E 120°11'0 0.0
2017-Sep-21 15:40N 23°47' E 120°11'0 0.0
2017-Sep-21 15:10N 23°47' E 120°11'0 0.0
2017-Sep-21 14:04N 23°47' E 120°11'0 0.0
2017-Sep-21 09:34N 23°47' E 120°11'0 0.0
2017-Sep-21 09:28N 23°47' E 120°11'0 0.0
2017-Sep-21 08:59N 23°47' E 120°11'0 0.0
2017-Sep-21 08:28N 23°47' E 120°11'0 0.0
2017-Sep-21 07:58N 23°47' E 120°11'0 0.0
2017-Sep-21 07:10N 23°47' E 120°11'0 0.0
2017-Sep-21 06:58N 23°47' E 120°11'0 0.0
2017-Sep-21 05:04N 23°47' E 120°11'0 0.0
2017-Sep-21 04:57N 23°47' E 120°11'0 0.0
2017-Sep-21 04:30N 23°47' E 120°11'6 3.4
2017-Sep-21 02:54N 23°45' E 120°05'1 2.2
2017-Sep-21 02:30N 23°45' E 120°04'0 0.0
2017-Sep-20 17:06N 23°45' E 120°04'0 0.0
2017-Sep-20 15:54N 23°45' E 120°04'0 0.2
2017-Sep-20 15:24N 23°45' E 120°04'0 0.4
2017-Sep-20 15:00N 23°45' E 120°04'2 0.8
2017-Sep-20 12:25N 23°44' E 120°02'1510.6
2017-Sep-20 11:02N 23°31' E 119°56'014.0
2017-Sep-20 11:00N 23°30' E 119°56'1513.1
2017-Sep-20 09:53N 23°16' E 119°56'612.0
2017-Sep-20 09:24N 23°10' E 119°56'411.4
2017-Sep-20 09:00N 23°05' E 119°55'611.0
2017-Sep-20 08:30N 22°60' E 119°55'510.6
2017-Sep-20 08:00N 22°55' E 119°56'510.6
2017-Sep-20 07:30N 22°49' E 119°56'611.1
2017-Sep-20 07:00N 22°44' E 119°55'510.6
2017-Sep-20 06:30N 22°38' E 119°55'510.8
2017-Sep-20 06:00N 22°33' E 119°55'510.6
2017-Sep-20 05:30N 22°28' E 119°54'510.9
2017-Sep-20 05:00N 22°22' E 119°54'611.3
2017-Sep-20 04:30N 22°17' E 119°53'611.3
2017-Sep-20 03:59N 22°11' E 119°53'611.5
2017-Sep-20 03:30N 22°05' E 119°54'711.5
2017-Sep-20 02:56N 21°59' E 119°55'511.1
2017-Sep-20 02:30N 21°54' E 119°56'  
Track history (hours):
 
Tides and Currents Weather Stations Pressure Air Temp Water Temp Dewpoint Dewpoint Depression Visibility Wind Speed Wind Dir Waves Ship Positions

Anangel Destiny

Last reported at 2017-Sep-21 21:10 UTC. Time now 2017-Sep-25 19:06 UTC.
Position N 23°47' E 120°11'.

Length 289 m; draft 15.1 m.

Type: Cargo ship. MMSI: 239612000.

Date/timePositionNaut miles runAvg speedWind from/ knotsBaromVisibWave heightAir tempDewpointWater temp
2017-Sep-21 21:10N 23°47' E 120°11'0 0.0
2017-Sep-21 15:40N 23°47' E 120°11'0 0.0
2017-Sep-21 15:10N 23°47' E 120°11'0 0.0
2017-Sep-21 14:04N 23°47' E 120°11'0 0.0
2017-Sep-21 09:34N 23°47' E 120°11'0 0.0
2017-Sep-21 09:28N 23°47' E 120°11'0 0.0
2017-Sep-21 08:59N 23°47' E 120°11'0 0.0
2017-Sep-21 08:28N 23°47' E 120°11'0 0.0
2017-Sep-21 07:58N 23°47' E 120°11'0 0.0
2017-Sep-21 07:10N 23°47' E 120°11'0 0.0
2017-Sep-21 06:58N 23°47' E 120°11'0 0.0
2017-Sep-21 05:04N 23°47' E 120°11'0 0.0
2017-Sep-21 04:57N 23°47' E 120°11'0 0.0
2017-Sep-21 04:30N 23°47' E 120°11'6 3.4
2017-Sep-21 02:54N 23°45' E 120°05'1 2.2
2017-Sep-21 02:30N 23°45' E 120°04'0 0.0
2017-Sep-20 17:06N 23°45' E 120°04'0 0.0
2017-Sep-20 15:54N 23°45' E 120°04'0 0.2
2017-Sep-20 15:24N 23°45' E 120°04'0 0.4
2017-Sep-20 15:00N 23°45' E 120°04'2 0.8
2017-Sep-20 12:25N 23°44' E 120°02'1510.6
2017-Sep-20 11:02N 23°31' E 119°56'014.0
2017-Sep-20 11:00N 23°30' E 119°56'1513.1
2017-Sep-20 09:53N 23°16' E 119°56'612.0
2017-Sep-20 09:24N 23°10' E 119°56'411.4
2017-Sep-20 09:00N 23°05' E 119°55'611.0
2017-Sep-20 08:30N 22°60' E 119°55'510.6
2017-Sep-20 08:00N 22°55' E 119°56'510.6
2017-Sep-20 07:30N 22°49' E 119°56'611.1
2017-Sep-20 07:00N 22°44' E 119°55'510.6
2017-Sep-20 06:30N 22°38' E 119°55'510.8
2017-Sep-20 06:00N 22°33' E 119°55'510.6
2017-Sep-20 05:30N 22°28' E 119°54'510.9
2017-Sep-20 05:00N 22°22' E 119°54'611.3
2017-Sep-20 04:30N 22°17' E 119°53'611.3
2017-Sep-20 03:59N 22°11' E 119°53'611.5
2017-Sep-20 03:30N 22°05' E 119°54'711.5
2017-Sep-20 02:56N 21°59' E 119°55'511.1
2017-Sep-20 02:30N 21°54' E 119°56'  

Dump ship's entire track history